Terminal Aerodrome Forecast
Issued by NWS Jacksonville, FL

Home | Current Version | Previous Version | Text Only | Print | Product List | Glossary On
Versions: 1 2 3 4 5 6 7 8 9 10 11 12 13 14 15 16 17 18 19 20 21 22 23 24 25 26 27
809
FTUS42 KJAX 192331
TAFGNV
TAF
KGNV 192331Z 2000/2024 17004KT P6SM FEW035 SCT130 BKN250
     FM200200 VRB03KT P6SM SCT250
     FM202000 09006KT P6SM VCTS FEW015 SCT030CB OVC045
      TEMPO 2020/2022 4SM -TSRA FEW009 SCT015 OVC030CB
     FM202300 11009KT P6SM FEW025 SCT040 BKN250=

USA.gov is the U.S. government's official web portal to all federal, state and local government web resources and services.